Addison, New York
Current Conditions -  °F | °C
As of 6:53 AM on Wednesday 26 Nov 2014 (Local Time) from KELM Reporting Station
Overcast Overcast  
Wind Chill: 31°   Ceiling: 2600
Heat Index: 35°   Visibility: 10mi
Dew Point: 25°   Wind: 5mph
Humidity: 67%   Direction: 80°E
Pressure: 30.16"   Gusts: NA
Location:  42.1°N, 77.23°W
Report Text: KELM 261153Z 08004KT 10SM OVC026 02/M04 A3016 RMK AO2 SLP222 T00171039 10022 21006 56014
Loading
Personal Weather Stations






























Interactive Weather Map New forecast layout! Learn more

10-Day Weather Forecast

Advertisements
Track Severe Weather on mobile